createdAt,value
2023-05-22T00:01:42.824Z,13.32
2023-05-22T00:04:10.805Z,14.10
2023-05-22T00:06:37.948Z,15.70
2023-05-22T00:09:04.749Z,14.60
2023-05-22T00:11:31.788Z,11.65
2023-05-22T00:13:58.262Z,14.38
2023-05-22T00:16:24.819Z,14.80
2023-05-22T00:18:51.356Z,12.55
2023-05-22T00:21:18.505Z,13.38
2023-05-22T00:23:45.787Z,12.52
2023-05-22T00:26:19.233Z,15.57
2023-05-22T00:28:46.034Z,12.88
2023-05-22T00:31:12.637Z,12.70
2023-05-22T00:33:39.183Z,13.88
2023-05-22T00:36:06.475Z,12.98
2023-05-22T00:38:35.439Z,10.88
2023-05-22T00:41:02.804Z,12.25
2023-05-22T00:43:29.502Z,13.68
2023-05-22T00:45:56.438Z,12.70
2023-05-22T00:48:23.633Z,13.35
2023-05-22T00:50:51.240Z,10.63
2023-05-22T00:53:21.232Z,13.65
2023-05-22T00:55:48.296Z,12.55
2023-05-22T00:58:17.742Z,11.18
2023-05-22T01:00:45.221Z,12.07
2023-05-22T01:03:12.297Z,12.68
2023-05-22T01:05:40.373Z,14.20
2023-05-22T01:08:08.167Z,15.95
2023-05-22T01:10:37.530Z,13.93
2023-05-22T01:13:23.316Z,14.65
2023-05-22T01:15:57.307Z,11.52
2023-05-22T01:18:42.639Z,12.30
2023-05-22T01:21:31.070Z,10.35
2023-05-22T01:24:33.628Z,13.07
2023-05-22T01:27:25.805Z,13.48
2023-05-22T01:30:29.731Z,11.30
2023-05-22T01:32:58.178Z,12.10
2023-05-22T01:35:26.590Z,13.50
2023-05-22T01:37:55.342Z,13.10
2023-05-22T01:42:48.514Z,18.38
2023-05-22T01:45:15.034Z,13.85
2023-05-22T01:47:41.594Z,12.60
2023-05-22T01:50:08.856Z,12.25
2023-05-22T01:52:52.363Z,11.60
2023-05-22T01:55:29.236Z,12.65
2023-05-22T01:57:59.220Z,10.90
2023-05-22T02:00:27.705Z,12.30
2023-05-22T02:03:06.731Z,14.38
2023-05-22T02:05:37.639Z,13.02
2023-05-22T02:08:04.805Z,18.88
2023-05-22T02:10:33.345Z,13.07
2023-05-22T02:13:00.318Z,13.60
2023-05-22T02:15:29.584Z,11.30
2023-05-22T02:18:03.174Z,14.23
2023-05-22T02:20:29.828Z,13.02
2023-05-22T02:22:56.358Z,13.05
2023-05-22T02:25:22.953Z,12.20
2023-05-22T02:27:52.183Z,14.38
2023-05-22T02:30:18.743Z,13.30
2023-05-22T02:32:45.369Z,13.60
2023-05-22T02:35:11.987Z,14.65
2023-05-22T02:37:38.767Z,14.23
2023-05-22T02:40:06.334Z,12.55
2023-05-22T02:42:33.124Z,11.25
2023-05-22T02:44:59.998Z,11.70
2023-05-22T02:47:27.058Z,11.57
2023-05-22T02:49:53.696Z,14.35
2023-05-22T02:52:20.933Z,14.38
2023-05-22T02:54:47.438Z,15.25
2023-05-22T02:57:13.962Z,14.18
2023-05-22T02:59:40.504Z,14.80
2023-05-22T03:02:07.497Z,14.13
2023-05-22T03:04:34.171Z,10.35
2023-05-22T03:07:01.702Z,12.95
2023-05-22T03:09:28.292Z,11.43
2023-05-22T03:11:54.831Z,13.77
2023-05-22T03:14:21.416Z,14.45
2023-05-22T03:16:47.951Z,13.57
2023-05-22T03:19:15.555Z,13.70
2023-05-22T03:21:45.914Z,13.02
2023-05-22T03:24:14.949Z,14.95
2023-05-22T03:26:44.557Z,15.85
2023-05-22T03:29:11.157Z,15.13
2023-05-22T03:31:37.732Z,11.85
2023-05-22T03:34:05.815Z,11.55
2023-05-22T03:36:35.448Z,13.10
2023-05-22T03:39:02.890Z,10.65
2023-05-22T03:41:29.616Z,13.43
2023-05-22T03:43:57.281Z,15.15
2023-05-22T03:46:23.903Z,12.60
2023-05-22T03:48:50.520Z,13.30
2023-05-22T03:51:19.998Z,13.73
2023-05-22T03:53:47.061Z,15.55
2023-05-22T03:56:13.623Z,15.52
2023-05-22T03:58:40.165Z,15.43
2023-05-22T04:01:06.711Z,11.25
2023-05-22T04:03:33.297Z,14.88
2023-05-22T04:05:59.891Z,14.00
2023-05-22T04:08:26.413Z,10.93
2023-05-22T04:10:54.453Z,12.43
2023-05-22T04:13:21.089Z,13.02
2023-05-22T04:15:47.742Z,14.30
2023-05-22T04:18:14.671Z,14.68
2023-05-22T04:20:42.737Z,16.00
2023-05-22T04:23:09.671Z,14.50
2023-05-22T04:25:36.570Z,16.02
2023-05-22T04:28:04.151Z,13.85
2023-05-22T04:30:34.089Z,12.50
2023-05-22T04:33:01.580Z,11.23
2023-05-22T04:35:29.493Z,11.10
2023-05-22T04:37:57.132Z,9.30
2023-05-22T04:40:23.802Z,13.25
2023-05-22T04:42:54.217Z,10.90
2023-05-22T04:45:25.275Z,12.57
2023-05-22T04:47:53.120Z,11.13
2023-05-22T04:50:20.590Z,13.02
2023-05-22T04:52:47.990Z,10.85
2023-05-22T04:55:15.210Z,10.35
2023-05-22T04:57:44.706Z,11.98
2023-05-22T05:00:13.052Z,16.40
2023-05-22T05:02:39.869Z,11.23
2023-05-22T05:05:06.591Z,12.93
2023-05-22T05:07:36.786Z,12.60
2023-05-22T05:10:03.426Z,12.80
2023-05-22T05:12:29.952Z,14.05
2023-05-22T05:14:56.436Z,12.95
2023-05-22T05:17:23.920Z,14.40
2023-05-22T05:19:50.514Z,13.90
2023-05-22T05:22:17.015Z,11.85
2023-05-22T05:24:43.521Z,13.52
2023-05-22T05:27:11.288Z,15.23
2023-05-22T05:29:37.788Z,16.23
2023-05-22T05:32:04.648Z,15.32
2023-05-22T05:34:31.377Z,13.38
2023-05-22T05:36:57.958Z,13.25
2023-05-22T05:39:24.560Z,20.70
2023-05-22T05:41:51.065Z,14.07
2023-05-22T05:44:17.616Z,13.57
2023-05-22T05:46:44.175Z,14.60
2023-05-22T05:49:11.256Z,16.30
2023-05-22T05:51:38.492Z,17.05
2023-05-22T05:54:05.197Z,17.75
2023-05-22T05:56:31.795Z,20.88
2023-05-22T05:58:58.521Z,21.35
2023-05-22T06:01:26.995Z,15.05
2023-05-22T06:03:53.854Z,16.75
2023-05-22T06:06:20.762Z,18.27
2023-05-22T06:08:47.315Z,16.25
2023-05-22T06:11:13.880Z,17.55
2023-05-22T06:13:40.384Z,18.33
2023-05-22T06:16:07.246Z,23.33
2023-05-22T06:18:36.202Z,23.77
2023-05-22T06:21:02.986Z,17.77
2023-05-22T06:23:29.499Z,22.77
2023-05-22T06:25:56.130Z,18.08
2023-05-22T06:28:22.824Z,22.63
2023-05-22T06:30:49.428Z,20.63
2023-05-22T06:33:16.649Z,24.30
2023-05-22T06:35:43.267Z,23.50
2023-05-22T06:38:10.010Z,27.95
2023-05-22T06:40:36.675Z,28.40
2023-05-22T06:43:03.279Z,23.50
2023-05-22T06:45:29.796Z,26.30
2023-05-22T06:47:56.414Z,23.63
2023-05-22T06:50:22.948Z,22.00
2023-05-22T06:52:49.629Z,23.17
2023-05-22T06:55:17.168Z,21.52
2023-05-22T06:57:43.736Z,22.73
2023-05-22T07:00:12.816Z,22.35
2023-05-22T07:02:40.006Z,24.10
2023-05-22T07:05:07.152Z,23.85
2023-05-22T07:07:33.696Z,21.95
2023-05-22T07:10:00.362Z,22.48
2023-05-22T07:12:27.672Z,26.17
2023-05-22T07:14:54.765Z,25.48
2023-05-22T07:17:21.980Z,33.13
2023-05-22T07:19:48.740Z,28.83
2023-05-22T07:22:15.707Z,28.58
2023-05-22T07:24:43.168Z,29.40
2023-05-22T07:27:11.321Z,31.50
2023-05-22T07:29:38.076Z,34.85
2023-05-22T07:32:04.886Z,33.45
2023-05-22T07:34:34.865Z,27.23
2023-05-22T07:37:07.844Z,26.75
2023-05-22T07:39:34.853Z,28.27
2023-05-22T07:42:02.075Z,29.25
2023-05-22T07:44:28.750Z,27.15
2023-05-22T07:46:55.763Z,30.63
2023-05-22T07:49:23.628Z,26.65
2023-05-22T07:51:50.167Z,33.45
2023-05-22T07:54:18.192Z,29.33
2023-05-22T07:56:46.016Z,30.55
2023-05-22T07:59:12.588Z,33.80
2023-05-22T08:01:39.889Z,31.45
2023-05-22T08:04:06.692Z,35.25
2023-05-22T08:06:35.099Z,37.00
2023-05-22T08:09:02.770Z,32.33
2023-05-22T08:11:29.715Z,32.03
2023-05-22T08:13:56.426Z,31.38
2023-05-22T08:16:23.546Z,33.35
2023-05-22T08:18:50.424Z,28.38
2023-05-22T08:21:17.092Z,35.75
2023-05-22T08:23:43.680Z,33.75
2023-05-22T08:26:10.194Z,31.95
2023-05-22T08:28:37.386Z,31.92
2023-05-22T08:31:04.094Z,32.50
2023-05-22T08:33:30.719Z,28.02
2023-05-22T08:35:57.228Z,29.27
2023-05-22T08:38:26.460Z,30.73
2023-05-22T08:40:55.602Z,33.65
2023-05-22T08:43:22.368Z,30.17
2023-05-22T08:46:09.714Z,33.90
2023-05-22T08:48:38.341Z,31.85
2023-05-22T08:51:05.806Z,36.75
2023-05-22T08:53:36.693Z,31.30
2023-05-22T08:56:05.526Z,33.10
2023-05-22T08:58:34.715Z,31.58
2023-05-22T09:01:02.730Z,42.13
2023-05-22T09:03:33.343Z,38.05
2023-05-22T09:06:01.357Z,29.90
2023-05-22T09:08:29.009Z,30.27
2023-05-22T09:10:56.357Z,31.05
2023-05-22T09:13:28.825Z,38.75
2023-05-22T09:16:00.327Z,32.53
2023-05-22T09:18:28.798Z,37.95
2023-05-22T09:23:25.483Z,37.28
2023-05-22T09:25:55.554Z,41.67
2023-05-22T09:28:25.138Z,36.78
2023-05-22T09:30:53.036Z,36.33
2023-05-22T09:33:20.562Z,31.83
2023-05-22T09:35:47.270Z,31.90
2023-05-22T09:38:14.396Z,31.20
2023-05-22T09:40:42.050Z,26.63
2023-05-22T09:43:09.717Z,33.30
2023-05-22T09:45:36.985Z,30.08
2023-05-22T09:48:04.872Z,34.85
2023-05-22T09:50:32.447Z,30.67
2023-05-22T09:53:05.926Z,34.58
2023-05-22T09:55:33.750Z,33.13
2023-05-22T09:58:04.743Z,36.95
2023-05-22T10:00:34.258Z,37.78
2023-05-22T10:03:12.590Z,39.85
2023-05-22T10:05:46.841Z,39.10
2023-05-22T10:08:38.919Z,32.08
2023-05-22T10:11:06.438Z,33.67
2023-05-22T10:13:36.015Z,39.00
2023-05-22T10:16:04.617Z,41.83
2023-05-22T10:18:31.343Z,36.45
2023-05-22T10:20:58.093Z,29.02
2023-05-22T10:23:24.899Z,37.25
2023-05-22T10:25:53.118Z,30.58
2023-05-22T10:28:27.596Z,28.60
2023-05-22T10:31:05.246Z,27.73
2023-05-22T10:33:42.204Z,27.55
2023-05-22T10:36:14.055Z,34.58
2023-05-22T10:39:05.290Z,29.15
2023-05-22T10:41:31.919Z,27.83
2023-05-22T10:43:58.463Z,27.52
2023-05-22T10:46:25.638Z,26.58
2023-05-22T10:48:54.136Z,23.88
2023-05-22T10:51:24.204Z,22.52
2023-05-22T10:54:05.356Z,24.13
2023-05-22T10:56:37.021Z,21.63
2023-05-22T10:59:05.373Z,23.95
2023-05-22T11:01:37.596Z,21.58
2023-05-22T11:04:04.491Z,23.13
2023-05-22T11:06:39.025Z,21.40
2023-05-22T11:09:26.761Z,25.23
2023-05-22T11:12:27.494Z,20.38
2023-05-22T11:14:59.962Z,22.20
2023-05-22T11:17:29.269Z,24.85
2023-05-22T11:20:00.622Z,27.65
2023-05-22T11:22:37.073Z,30.45
2023-05-22T11:25:07.199Z,23.38
2023-05-22T11:27:34.922Z,22.45
2023-05-22T11:30:01.820Z,24.63
2023-05-22T11:32:29.581Z,24.80
2023-05-22T11:34:57.328Z,23.25
2023-05-22T11:37:24.239Z,23.38
2023-05-22T11:39:58.241Z,24.88
2023-05-22T11:42:25.223Z,23.15
2023-05-22T11:44:52.167Z,25.02
2023-05-22T11:47:18.825Z,23.70
2023-05-22T11:49:46.039Z,24.80
2023-05-22T11:52:12.703Z,25.95
2023-05-22T11:54:39.267Z,28.23
2023-05-22T11:57:07.982Z,24.58
2023-05-22T11:59:34.635Z,25.50
2023-05-22T12:02:01.223Z,25.73
2023-05-22T12:04:28.167Z,29.45
2023-05-22T12:06:55.179Z,32.50
2023-05-22T12:09:21.907Z,22.48
2023-05-22T12:11:49.561Z,26.83
2023-05-22T12:14:16.247Z,27.73
2023-05-22T12:16:44.425Z,24.80
2023-05-22T12:19:12.097Z,32.13
2023-05-22T12:21:39.453Z,29.70
2023-05-22T12:24:06.520Z,29.75
2023-05-22T12:26:33.123Z,27.75
2023-05-22T12:28:59.768Z,25.25
2023-05-22T12:31:26.804Z,30.73
2023-05-22T12:33:57.104Z,29.80
2023-05-22T12:36:38.892Z,24.88
2023-05-22T12:39:16.217Z,30.05
2023-05-22T12:41:44.240Z,26.40
2023-05-22T12:46:38.157Z,20.90
2023-05-22T12:49:04.974Z,24.00
2023-05-22T12:51:32.417Z,20.60
2023-05-22T12:53:59.763Z,25.83
2023-05-22T12:56:26.654Z,24.00
2023-05-22T12:58:53.240Z,24.92
2023-05-22T13:01:20.114Z,23.38
2023-05-22T13:03:46.769Z,25.92
2023-05-22T13:06:13.502Z,23.33
2023-05-22T13:08:40.052Z,25.25
2023-05-22T13:11:06.597Z,22.25
2023-05-22T13:13:33.139Z,25.25
2023-05-22T13:15:59.746Z,19.52
2023-05-22T13:18:26.326Z,26.08
2023-05-22T13:20:53.309Z,27.80
2023-05-22T13:23:19.834Z,23.60
2023-05-22T13:25:46.374Z,21.30
2023-05-22T13:28:12.872Z,20.77
2023-05-22T13:30:40.173Z,21.50
2023-05-22T13:33:07.235Z,24.23
2023-05-22T13:35:33.806Z,21.80
2023-05-22T13:38:00.374Z,23.63
2023-05-22T13:40:26.906Z,21.48
2023-05-22T13:42:53.456Z,82.50
2023-05-22T13:45:20.106Z,22.20
2023-05-22T13:47:46.692Z,22.40
2023-05-22T13:50:13.335Z,23.90
2023-05-22T13:52:40.288Z,24.02
2023-05-22T13:55:09.851Z,22.05
2023-05-22T13:57:38.720Z,24.77
2023-05-22T14:00:06.014Z,24.52
2023-05-22T14:02:32.662Z,25.10
2023-05-22T14:04:59.266Z,27.30
2023-05-22T14:07:25.939Z,28.48
2023-05-22T14:09:52.593Z,28.60
2023-05-22T14:12:19.201Z,25.95
2023-05-22T14:14:45.744Z,28.35
2023-05-22T14:17:12.268Z,28.92
2023-05-22T14:19:39.249Z,23.83
2023-05-22T14:22:05.887Z,28.13
2023-05-22T14:24:32.575Z,27.42
2023-05-22T14:26:59.161Z,28.75
2023-05-22T14:29:25.918Z,31.73
2023-05-22T14:31:55.522Z,30.27
2023-05-22T14:34:22.054Z,28.52
2023-05-22T14:36:48.642Z,27.42
2023-05-22T14:39:15.558Z,32.78
2023-05-22T14:41:42.155Z,32.65
2023-05-22T14:44:09.251Z,28.98
2023-05-22T14:46:35.862Z,32.08
2023-05-22T14:49:02.483Z,32.00
2023-05-22T14:51:29.238Z,35.60
2023-05-22T14:53:55.790Z,34.75
2023-05-22T14:56:22.964Z,34.30
2023-05-22T14:58:49.672Z,33.53
2023-05-22T15:01:16.212Z,40.85
2023-05-22T15:03:43.442Z,33.78
2023-05-22T15:06:10.055Z,35.83
2023-05-22T15:08:36.736Z,36.83
2023-05-22T15:11:03.433Z,37.13
2023-05-22T15:13:30.024Z,36.65
2023-05-22T15:15:58.010Z,39.58
2023-05-22T15:18:26.503Z,34.85
2023-05-22T15:20:53.481Z,35.20
2023-05-22T15:23:20.523Z,35.08
2023-05-22T15:25:48.193Z,34.78
2023-05-22T15:28:14.745Z,31.33
2023-05-22T15:30:43.598Z,34.45
2023-05-22T15:33:10.202Z,31.38
2023-05-22T15:35:36.809Z,30.80
2023-05-22T15:38:03.424Z,32.90
2023-05-22T15:40:30.152Z,34.30
2023-05-22T15:42:59.570Z,35.40
2023-05-22T15:45:26.078Z,30.35
2023-05-22T15:47:53.507Z,32.42
2023-05-22T15:50:20.081Z,26.88
2023-05-22T15:52:46.573Z,28.70
2023-05-22T15:55:13.237Z,22.98
2023-05-22T15:57:39.731Z,22.33
2023-05-22T16:00:06.896Z,24.08
2023-05-22T16:02:33.685Z,25.90
2023-05-22T16:05:00.289Z,22.10
2023-05-22T16:07:27.058Z,20.75
2023-05-22T16:09:54.219Z,19.77
2023-05-22T16:12:20.829Z,20.10
2023-05-22T16:14:47.471Z,18.27
2023-05-22T16:17:14.030Z,19.50
2023-05-22T16:19:40.658Z,16.40
2023-05-22T16:22:07.178Z,19.17
2023-05-22T16:24:33.702Z,21.83
2023-05-22T16:27:00.652Z,17.90
2023-05-22T16:29:27.247Z,18.58
2023-05-22T16:31:53.900Z,23.80
2023-05-22T16:34:20.495Z,21.30
2023-05-22T16:36:47.094Z,27.88
2023-05-22T16:39:15.410Z,26.73
2023-05-22T16:41:41.904Z,17.60
2023-05-22T16:44:08.650Z,14.82
2023-05-22T16:46:35.145Z,10.90
2023-05-22T16:49:01.855Z,11.32
2023-05-22T16:51:28.397Z,13.25
2023-05-22T16:53:54.913Z,12.80
2023-05-22T16:56:21.439Z,12.65
2023-05-22T16:58:47.978Z,8.90
2023-05-22T17:01:14.786Z,9.25
2023-05-22T17:03:41.616Z,8.98
2023-05-22T17:06:09.027Z,7.70
2023-05-22T17:08:35.786Z,7.18
2023-05-22T17:11:02.542Z,7.70
2023-05-22T17:13:29.248Z,6.72
2023-05-22T17:15:56.085Z,9.02
2023-05-22T17:18:22.620Z,7.20
2023-05-22T17:20:50.573Z,8.05
2023-05-22T17:25:46.585Z,7.35
2023-05-22T17:28:14.702Z,8.35
2023-05-22T17:30:42.486Z,9.00
2023-05-22T17:33:09.484Z,7.82
2023-05-22T17:35:36.010Z,9.10
2023-05-22T17:38:02.567Z,9.20
2023-05-22T17:40:40.473Z,9.85
2023-05-22T17:43:11.048Z,9.70
2023-05-22T17:45:37.811Z,10.90
2023-05-22T17:48:04.892Z,8.25
2023-05-22T17:50:31.693Z,11.77
2023-05-22T17:52:58.304Z,11.75
2023-05-22T17:55:24.811Z,12.23
2023-05-22T17:57:51.543Z,11.38
2023-05-22T18:00:18.441Z,9.50
2023-05-22T18:02:45.040Z,10.52
2023-05-22T18:05:11.648Z,10.13
2023-05-22T18:07:38.291Z,10.40
2023-05-22T18:10:08.136Z,13.45
2023-05-22T18:12:36.630Z,10.70
2023-05-22T18:15:04.911Z,11.50
2023-05-22T18:17:32.447Z,12.40
2023-05-22T18:19:59.259Z,11.63
2023-05-22T18:22:25.764Z,10.50
2023-05-22T18:24:52.329Z,10.57
2023-05-22T18:27:18.900Z,14.80
2023-05-22T18:29:45.447Z,11.00
2023-05-22T18:32:13.572Z,13.13
2023-05-22T18:34:40.160Z,13.57
2023-05-22T18:37:06.700Z,11.13
2023-05-22T18:39:33.363Z,10.85
2023-05-22T18:41:59.910Z,10.85
2023-05-22T18:44:26.492Z,12.43
2023-05-22T18:46:53.094Z,14.27
2023-05-22T18:49:19.802Z,12.63
2023-05-22T18:51:46.336Z,13.88
2023-05-22T18:54:12.832Z,11.77
2023-05-22T18:56:39.458Z,10.73
2023-05-22T18:59:06.048Z,17.30
2023-05-22T19:01:33.215Z,11.50
2023-05-22T19:04:00.378Z,10.73
2023-05-22T19:06:27.158Z,12.82
2023-05-22T19:08:53.656Z,11.32
2023-05-22T19:11:20.187Z,12.70
2023-05-22T19:13:47.073Z,11.77
2023-05-22T19:16:13.962Z,10.10
2023-05-22T19:18:40.576Z,10.63
2023-05-22T19:21:10.171Z,6.63
2023-05-22T19:23:36.953Z,8.27
2023-05-22T19:26:03.609Z,7.65
2023-05-22T19:28:33.506Z,6.50
2023-05-22T19:31:02.963Z,7.65
2023-05-22T19:33:31.160Z,10.65
2023-05-22T19:35:58.996Z,10.88
2023-05-22T19:38:25.605Z,6.45
2023-05-22T19:40:52.206Z,6.28
2023-05-22T19:43:18.931Z,7.95
2023-05-22T19:45:46.017Z,7.53
2023-05-22T19:48:13.174Z,6.18
2023-05-22T19:50:40.165Z,8.38
2023-05-22T19:53:07.228Z,7.45
2023-05-22T19:55:33.751Z,7.53
2023-05-22T19:58:00.279Z,6.28
2023-05-22T20:00:29.263Z,6.72
2023-05-22T20:02:56.090Z,5.88
2023-05-22T20:05:22.740Z,7.60
2023-05-22T20:07:49.356Z,8.07
2023-05-22T20:10:16.415Z,5.70
2023-05-22T20:12:43.129Z,7.10
2023-05-22T20:15:10.642Z,8.40
2023-05-22T20:17:41.710Z,6.10
2023-05-22T20:20:09.783Z,5.70
2023-05-22T20:22:36.398Z,7.85
2023-05-22T20:25:05.115Z,6.28
2023-05-22T20:27:31.907Z,7.70
2023-05-22T20:30:00.073Z,6.57
2023-05-22T20:32:27.043Z,7.15
2023-05-22T20:34:55.320Z,8.32
2023-05-22T20:37:22.327Z,6.82
2023-05-22T20:39:50.075Z,7.53
2023-05-22T20:42:17.755Z,8.25
2023-05-22T20:44:44.571Z,6.95
2023-05-22T20:47:11.302Z,8.07
2023-05-22T20:49:38.580Z,7.00
2023-05-22T20:52:05.815Z,7.45
2023-05-22T20:54:34.634Z,6.50
2023-05-22T20:57:01.876Z,7.68
2023-05-22T20:59:29.088Z,8.63
2023-05-22T21:01:56.879Z,6.80
2023-05-22T21:04:23.930Z,6.45
2023-05-22T21:06:51.023Z,7.60
2023-05-22T21:09:17.694Z,6.80
2023-05-22T21:11:44.190Z,7.28
2023-05-22T21:14:10.701Z,6.65
2023-05-22T21:16:39.610Z,7.20
2023-05-22T21:19:07.261Z,7.32
2023-05-22T21:21:37.815Z,7.18
2023-05-22T21:24:04.549Z,7.88
2023-05-22T21:26:31.122Z,5.95
2023-05-22T21:28:57.791Z,8.40
2023-05-22T21:31:24.365Z,6.50
2023-05-22T21:33:50.961Z,7.07
2023-05-22T21:36:17.657Z,7.72
2023-05-22T21:38:44.637Z,7.05
2023-05-22T21:41:11.938Z,6.13
2023-05-22T21:43:38.833Z,6.72
2023-05-22T21:46:05.509Z,6.57
2023-05-22T21:48:32.056Z,7.57
2023-05-22T21:50:58.656Z,8.75
2023-05-22T21:53:25.223Z,7.65
2023-05-22T21:55:51.888Z,8.98
2023-05-22T21:58:18.371Z,7.90
2023-05-22T22:00:44.907Z,8.23
2023-05-22T22:03:12.129Z,8.48
2023-05-22T22:05:38.757Z,8.32
2023-05-22T22:08:05.894Z,9.40
2023-05-22T22:10:32.400Z,8.07
2023-05-22T22:12:58.986Z,9.15
2023-05-22T22:15:25.646Z,8.55
2023-05-22T22:17:52.575Z,7.18
2023-05-22T22:20:24.750Z,9.40
2023-05-22T22:22:57.174Z,10.55
2023-05-22T22:25:23.688Z,8.90
2023-05-22T22:27:50.608Z,7.35
2023-05-22T22:30:17.121Z,8.95
2023-05-22T22:32:43.724Z,9.23
2023-05-22T22:35:10.345Z,9.30
2023-05-22T22:37:37.595Z,8.85
2023-05-22T22:40:05.547Z,8.73
2023-05-22T22:42:34.918Z,8.25
2023-05-22T22:45:01.706Z,7.97
2023-05-22T22:47:28.334Z,8.98
2023-05-22T22:49:57.214Z,8.95
2023-05-22T22:52:26.724Z,10.15
2023-05-22T22:54:53.274Z,10.05
2023-05-22T22:57:19.821Z,9.43
2023-05-22T22:59:46.322Z,7.88
2023-05-22T23:02:12.856Z,9.70
2023-05-22T23:04:39.479Z,8.65
2023-05-22T23:07:06.154Z,8.18
2023-05-22T23:09:32.661Z,8.32
2023-05-22T23:11:59.242Z,9.93
2023-05-22T23:14:27.973Z,11.90
2023-05-22T23:19:20.937Z,8.77
2023-05-22T23:21:47.557Z,9.73
2023-05-22T23:24:14.184Z,7.68
2023-05-22T23:26:41.115Z,9.32
2023-05-22T23:29:08.233Z,8.90
2023-05-22T23:31:36.587Z,9.30
2023-05-22T23:34:03.247Z,10.30
2023-05-22T23:36:29.789Z,9.85
2023-05-22T23:38:56.339Z,7.57
2023-05-22T23:41:24.444Z,9.18
2023-05-22T23:43:51.254Z,8.65
2023-05-22T23:46:18.110Z,9.80
2023-05-22T23:48:44.684Z,8.23
2023-05-22T23:51:14.319Z,10.35
2023-05-22T23:53:41.917Z,8.65
2023-05-22T23:56:09.321Z,9.38
2023-05-22T23:58:37.185Z,5.53
